createdAt,value
2022-11-14T00:01:09.583Z,7.18
2022-11-14T00:03:37.689Z,7.17
2022-11-14T00:06:05.750Z,7.16
2022-11-14T00:08:32.597Z,7.16
2022-11-14T00:10:59.231Z,7.16
2022-11-14T00:13:25.810Z,7.14
2022-11-14T00:15:53.313Z,7.14
2022-11-14T00:18:20.129Z,7.13
2022-11-14T00:20:49.802Z,7.13
2022-11-14T00:23:16.642Z,7.11
2022-11-14T00:25:44.119Z,7.10
2022-11-14T00:28:10.727Z,7.10
2022-11-14T00:30:37.388Z,7.08
2022-11-14T00:33:04.230Z,7.06
2022-11-14T00:35:30.917Z,7.04
2022-11-14T00:37:58.857Z,7.04
2022-11-14T00:40:25.516Z,7.02
2022-11-14T00:42:52.157Z,7.00
2022-11-14T00:45:18.771Z,6.99
2022-11-14T00:47:45.393Z,6.98
2022-11-14T00:50:11.967Z,6.99
2022-11-14T00:52:38.501Z,6.97
2022-11-14T00:55:08.136Z,6.95
2022-11-14T00:57:34.725Z,6.93
2022-11-14T01:00:01.376Z,6.91
2022-11-14T01:02:28.169Z,6.90
2022-11-14T01:04:54.721Z,6.89
2022-11-14T01:07:21.310Z,6.88
2022-11-14T01:09:47.890Z,6.86
2022-11-14T01:12:15.918Z,6.84
2022-11-14T01:14:42.473Z,6.83
2022-11-14T01:17:09.126Z,6.82
2022-11-14T01:19:35.745Z,6.80
2022-11-14T01:22:06.288Z,6.79
2022-11-14T01:24:33.812Z,6.78
2022-11-14T01:27:00.903Z,6.77
2022-11-14T01:29:29.195Z,6.75
2022-11-14T01:31:56.104Z,6.74
2022-11-14T01:34:23.367Z,6.73
2022-11-14T01:36:50.518Z,6.73
2022-11-14T01:39:17.253Z,6.72
2022-11-14T01:41:43.948Z,6.72
2022-11-14T01:44:15.385Z,6.71
2022-11-14T01:46:47.263Z,6.71
2022-11-14T01:49:19.078Z,6.70
2022-11-14T01:51:48.548Z,6.69
2022-11-14T01:54:19.940Z,6.68
2022-11-14T01:56:52.266Z,6.68
2022-11-14T01:59:23.583Z,6.66
2022-11-14T02:01:53.667Z,6.66
2022-11-14T02:04:24.371Z,6.65
2022-11-14T02:06:54.232Z,6.65
2022-11-14T02:09:21.061Z,6.65
2022-11-14T02:11:48.105Z,6.65
2022-11-14T02:14:14.732Z,6.64
2022-11-14T02:16:55.452Z,6.63
2022-11-14T02:19:43.161Z,6.61
2022-11-14T02:22:11.310Z,6.59
2022-11-14T02:24:38.033Z,6.59
2022-11-14T02:27:06.247Z,6.58
2022-11-14T02:29:33.879Z,6.58
2022-11-14T02:32:00.667Z,6.57
2022-11-14T02:34:27.483Z,6.56
2022-11-14T02:36:54.790Z,6.55
2022-11-14T02:39:23.468Z,6.54
2022-11-14T02:41:50.613Z,6.52
2022-11-14T02:44:17.611Z,6.52
2022-11-14T02:46:44.351Z,6.52
2022-11-14T02:49:11.033Z,6.51
2022-11-14T02:51:37.682Z,6.51
2022-11-14T02:54:04.328Z,6.51
2022-11-14T02:56:32.397Z,6.53
2022-11-14T02:58:58.996Z,6.52
2022-11-14T03:01:25.613Z,6.52
2022-11-14T03:03:52.445Z,6.52
2022-11-14T03:06:19.045Z,6.53
2022-11-14T03:08:45.711Z,6.54
2022-11-14T03:11:12.288Z,6.57
2022-11-14T03:13:40.272Z,6.58
2022-11-14T03:16:08.732Z,6.60
2022-11-14T03:18:35.820Z,6.62
2022-11-14T03:21:05.691Z,6.64
2022-11-14T03:23:32.708Z,6.66
2022-11-14T03:26:00.691Z,6.69
2022-11-14T03:28:27.595Z,6.71
2022-11-14T03:30:55.947Z,6.72
2022-11-14T03:33:22.637Z,6.73
2022-11-14T03:35:49.579Z,6.75
2022-11-14T03:38:16.196Z,6.77
2022-11-14T03:40:42.970Z,6.78
2022-11-14T03:43:09.562Z,6.80
2022-11-14T03:45:37.020Z,6.81
2022-11-14T03:48:05.737Z,6.83
2022-11-14T03:50:32.390Z,6.82
2022-11-14T03:52:59.191Z,6.84
2022-11-14T03:55:26.054Z,6.83
2022-11-14T03:57:52.704Z,6.83
2022-11-14T04:00:20.338Z,6.83
2022-11-14T04:02:46.914Z,6.83
2022-11-14T04:05:14.964Z,6.83
2022-11-14T04:07:41.618Z,6.83
2022-11-14T04:10:08.824Z,6.83
2022-11-14T04:12:35.499Z,6.83
2022-11-14T04:15:02.099Z,6.83
2022-11-14T04:17:28.794Z,6.84
2022-11-14T04:19:55.373Z,6.84
2022-11-14T04:22:23.525Z,6.83
2022-11-14T04:24:50.168Z,6.81
2022-11-14T04:27:16.830Z,6.80
2022-11-14T04:29:43.442Z,6.78
2022-11-14T04:32:09.988Z,6.77
2022-11-14T04:34:36.590Z,6.74
2022-11-14T04:37:03.346Z,6.71
2022-11-14T04:39:31.374Z,6.69
2022-11-14T04:41:57.977Z,6.68
2022-11-14T04:44:24.700Z,6.66
2022-11-14T04:46:51.276Z,6.65
2022-11-14T04:49:18.000Z,6.63
2022-11-14T04:51:44.722Z,6.61
2022-11-14T04:54:11.401Z,6.58
2022-11-14T04:56:39.497Z,6.55
2022-11-14T04:59:06.071Z,6.53
2022-11-14T05:01:33.012Z,6.50
2022-11-14T05:03:59.699Z,6.47
2022-11-14T05:06:26.336Z,6.46
2022-11-14T05:08:52.950Z,6.44
2022-11-14T05:11:24.192Z,6.44
2022-11-14T05:13:55.988Z,6.42
2022-11-14T05:16:22.581Z,6.41
2022-11-14T05:18:49.176Z,6.39
2022-11-14T05:21:15.880Z,6.39
2022-11-14T05:23:42.477Z,6.39
2022-11-14T05:26:10.892Z,6.38
2022-11-14T05:28:37.538Z,6.36
2022-11-14T05:31:07.548Z,6.33
2022-11-14T05:33:35.230Z,6.31
2022-11-14T05:36:02.915Z,6.30
2022-11-14T05:38:29.740Z,6.28
2022-11-14T05:40:56.607Z,6.26
2022-11-14T05:43:23.253Z,6.25
2022-11-14T05:45:49.865Z,6.25
2022-11-14T05:48:17.936Z,6.22
2022-11-14T05:50:44.541Z,6.19
2022-11-14T05:53:11.077Z,6.18
2022-11-14T05:55:37.704Z,6.18
2022-11-14T05:58:04.324Z,6.17
2022-11-14T06:00:34.684Z,6.16
2022-11-14T06:03:06.266Z,6.15
2022-11-14T06:05:35.013Z,6.13
2022-11-14T06:08:01.676Z,6.13
2022-11-14T06:10:28.603Z,6.12
2022-11-14T06:12:55.413Z,6.12
2022-11-14T06:15:22.161Z,6.10
2022-11-14T06:17:48.741Z,6.10
2022-11-14T06:20:15.475Z,6.10
2022-11-14T06:22:43.607Z,6.08
2022-11-14T06:25:10.461Z,6.07
2022-11-14T06:27:37.034Z,6.07
2022-11-14T06:30:04.589Z,6.04
2022-11-14T06:32:31.301Z,6.04
2022-11-14T06:34:57.958Z,6.04
2022-11-14T06:37:24.927Z,6.03
2022-11-14T06:39:52.956Z,6.03
2022-11-14T06:42:19.655Z,6.03
2022-11-14T06:44:46.294Z,6.03
2022-11-14T06:47:12.905Z,6.05
2022-11-14T06:49:40.842Z,6.03
2022-11-14T06:52:07.554Z,6.06
2022-11-14T06:54:34.436Z,6.04
2022-11-14T06:57:02.675Z,6.06
2022-11-14T06:59:29.259Z,6.07
2022-11-14T07:01:55.876Z,6.08
2022-11-14T07:04:22.464Z,6.09
2022-11-14T07:06:49.140Z,6.09
2022-11-14T07:09:15.925Z,6.10
2022-11-14T07:11:42.553Z,6.12
2022-11-14T07:14:10.633Z,6.14
2022-11-14T07:16:37.309Z,6.16
2022-11-14T07:19:06.204Z,6.18
2022-11-14T07:21:34.107Z,6.19
2022-11-14T07:24:00.754Z,6.22
2022-11-14T07:26:27.521Z,6.24
2022-11-14T07:28:59.202Z,6.26
2022-11-14T07:31:30.367Z,6.30
2022-11-14T07:33:56.939Z,6.33
2022-11-14T07:36:23.679Z,6.35
2022-11-14T07:38:50.538Z,6.38
2022-11-14T07:41:17.174Z,6.41
2022-11-14T07:43:44.147Z,6.43
2022-11-14T07:46:12.889Z,6.47
2022-11-14T07:48:41.504Z,6.50
2022-11-14T07:51:12.351Z,6.52
2022-11-14T07:53:38.974Z,6.57
2022-11-14T07:56:08.008Z,6.61
2022-11-14T07:58:35.558Z,6.65
2022-11-14T08:01:02.696Z,6.69
2022-11-14T08:03:29.933Z,6.74
2022-11-14T08:06:02.136Z,6.78
2022-11-14T08:08:29.181Z,6.82
2022-11-14T08:10:57.029Z,6.88
2022-11-14T08:13:33.168Z,6.92
2022-11-14T08:16:09.185Z,6.99
2022-11-14T08:18:38.890Z,7.04
2022-11-14T08:21:07.548Z,7.10
2022-11-14T08:23:34.298Z,7.17
2022-11-14T08:26:00.938Z,7.23
2022-11-14T08:28:27.984Z,7.32
2022-11-14T08:30:59.430Z,7.40
2022-11-14T08:33:26.051Z,7.46
2022-11-14T08:35:52.702Z,7.53
2022-11-14T08:38:20.659Z,7.60
2022-11-14T08:40:47.288Z,7.68
2022-11-14T08:43:13.820Z,7.75
2022-11-14T08:45:40.551Z,7.83
2022-11-14T08:48:07.190Z,7.92
2022-11-14T08:50:34.082Z,8.00
2022-11-14T08:53:00.886Z,8.08
2022-11-14T08:55:28.811Z,8.15
2022-11-14T08:57:55.502Z,8.23
2022-11-14T09:00:22.536Z,8.31
2022-11-14T09:02:49.243Z,8.38
2022-11-14T09:05:16.056Z,8.45
2022-11-14T09:07:42.674Z,8.52
2022-11-14T09:10:09.974Z,8.57
2022-11-14T09:12:38.009Z,8.61
2022-11-14T09:15:05.401Z,8.66
2022-11-14T09:17:32.132Z,8.70
2022-11-14T09:19:58.904Z,8.72
2022-11-14T09:22:25.446Z,8.75
2022-11-14T09:24:52.120Z,8.78
2022-11-14T09:27:18.796Z,8.82
2022-11-14T09:29:46.757Z,8.90
2022-11-14T09:32:13.355Z,8.96
2022-11-14T09:34:39.962Z,9.01
2022-11-14T09:37:06.564Z,9.06
2022-11-14T09:39:33.214Z,9.12
2022-11-14T09:42:17.543Z,9.14
2022-11-14T09:44:57.294Z,9.18
2022-11-14T09:47:28.125Z,9.23
2022-11-14T09:49:59.769Z,9.27
2022-11-14T09:52:31.094Z,9.33
2022-11-14T09:55:01.104Z,9.39
2022-11-14T09:57:28.781Z,9.43
2022-11-14T09:59:57.035Z,9.48
2022-11-14T10:02:46.170Z,9.54
2022-11-14T10:05:24.540Z,9.57
2022-11-14T10:08:09.476Z,9.58
2022-11-14T10:10:50.974Z,9.60
2022-11-14T10:13:34.338Z,9.62
2022-11-14T10:16:07.227Z,9.63
2022-11-14T10:18:45.275Z,9.68
2022-11-14T10:21:32.818Z,9.71
2022-11-14T10:24:09.726Z,9.74
2022-11-14T10:26:40.304Z,9.81
2022-11-14T10:29:31.358Z,9.87
2022-11-14T10:32:11.659Z,9.92
2022-11-14T10:34:44.831Z,9.96
2022-11-14T10:37:19.699Z,10.00
2022-11-14T10:39:51.714Z,10.04
2022-11-14T10:42:34.393Z,10.09
2022-11-14T10:45:04.515Z,10.14
2022-11-14T10:47:40.533Z,10.18
2022-11-14T10:50:18.206Z,10.23
2022-11-14T10:52:46.999Z,10.27
2022-11-14T10:55:15.360Z,10.31
2022-11-14T10:57:43.015Z,10.35
2022-11-14T11:00:12.875Z,10.37
2022-11-14T11:02:52.900Z,10.40
2022-11-14T11:05:21.752Z,10.42
2022-11-14T11:07:49.223Z,10.45
2022-11-14T11:10:21.531Z,10.45
2022-11-14T11:12:49.624Z,10.47
2022-11-14T11:15:19.653Z,10.51
2022-11-14T11:17:58.359Z,10.55
2022-11-14T11:20:29.298Z,10.60
2022-11-14T11:23:04.286Z,10.62
2022-11-14T11:25:33.125Z,10.62
2022-11-14T11:28:12.766Z,10.64
2022-11-14T11:30:40.045Z,10.68
2022-11-14T11:33:23.499Z,10.70
2022-11-14T11:35:53.197Z,10.75
2022-11-14T11:38:20.489Z,10.79
2022-11-14T11:40:50.678Z,10.82
2022-11-14T11:43:43.121Z,10.86
2022-11-14T11:46:19.918Z,10.91
2022-11-14T11:48:52.727Z,10.94
2022-11-14T11:51:24.771Z,10.98
2022-11-14T11:53:58.398Z,11.01
2022-11-14T11:56:29.922Z,11.03
2022-11-14T11:59:04.015Z,11.04
2022-11-14T12:01:30.701Z,11.06
2022-11-14T12:04:01.489Z,11.10
2022-11-14T12:06:35.292Z,11.14
2022-11-14T12:09:10.330Z,11.19
2022-11-14T12:11:39.234Z,11.23
2022-11-14T12:14:25.608Z,11.25
2022-11-14T12:17:30.592Z,11.28
2022-11-14T12:20:14.867Z,11.30
2022-11-14T12:23:04.374Z,11.32
2022-11-14T12:25:58.080Z,11.34
2022-11-14T12:28:44.278Z,11.33
2022-11-14T12:31:14.021Z,11.31
2022-11-14T12:33:46.110Z,11.29
2022-11-14T12:36:14.088Z,11.29
2022-11-14T12:38:46.331Z,11.30
2022-11-14T12:41:23.913Z,11.30
2022-11-14T12:43:50.641Z,11.29
2022-11-14T12:46:17.299Z,11.29
2022-11-14T12:48:45.367Z,11.28
2022-11-14T12:51:51.037Z,11.28
2022-11-14T12:54:43.531Z,11.31
2022-11-14T12:57:19.400Z,11.32
2022-11-14T13:00:01.961Z,11.33
2022-11-14T13:02:59.252Z,11.31
2022-11-14T13:05:43.151Z,11.32
2022-11-14T13:08:40.068Z,11.32
2022-11-14T13:11:34.088Z,11.33
2022-11-14T13:14:01.912Z,11.35
2022-11-14T13:16:31.369Z,11.38
2022-11-14T13:19:12.125Z,11.36
2022-11-14T13:21:44.766Z,11.34
2022-11-14T13:24:15.263Z,11.33
2022-11-14T13:26:50.404Z,11.32
2022-11-14T13:29:53.409Z,11.30
2022-11-14T13:33:02.775Z,11.29
2022-11-14T13:35:50.491Z,11.26
2022-11-14T13:38:49.016Z,11.23
2022-11-14T13:41:46.938Z,11.22
2022-11-14T13:44:45.704Z,11.20
2022-11-14T13:47:27.129Z,11.17
2022-11-14T13:50:00.430Z,11.15
2022-11-14T13:52:31.328Z,11.12
2022-11-14T13:54:59.131Z,11.07
2022-11-14T13:57:39.447Z,11.04
2022-11-14T14:00:12.282Z,11.01
2022-11-14T14:02:54.078Z,10.98
2022-11-14T14:05:46.885Z,10.97
2022-11-14T14:08:29.830Z,10.95
2022-11-14T14:11:23.903Z,10.91
2022-11-14T14:13:57.276Z,10.86
2022-11-14T14:16:34.802Z,10.81
2022-11-14T14:19:11.253Z,10.77
2022-11-14T14:21:45.494Z,10.74
2022-11-14T14:24:34.150Z,10.71
2022-11-14T14:27:12.436Z,10.68
2022-11-14T14:29:47.511Z,10.64
2022-11-14T14:32:15.845Z,10.58
2022-11-14T14:34:42.582Z,10.54
2022-11-14T14:37:17.236Z,10.49
2022-11-14T14:39:56.277Z,10.47
2022-11-14T14:42:23.615Z,10.43
2022-11-14T14:44:51.971Z,10.39
2022-11-14T14:47:36.541Z,10.35
2022-11-14T14:50:06.866Z,10.29
2022-11-14T14:52:35.262Z,10.24
2022-11-14T14:55:01.886Z,10.19
2022-11-14T14:57:29.712Z,10.13
2022-11-14T15:00:01.868Z,10.07
2022-11-14T15:02:29.458Z,10.03
2022-11-14T15:04:58.758Z,9.95
2022-11-14T15:07:29.831Z,9.90
2022-11-14T15:09:59.402Z,9.84
2022-11-14T15:12:29.037Z,9.78
2022-11-14T15:14:56.213Z,9.73
2022-11-14T15:17:24.883Z,9.66
2022-11-14T15:19:53.363Z,9.61
2022-11-14T15:22:23.839Z,9.56
2022-11-14T15:25:17.233Z,9.47
2022-11-14T15:27:50.210Z,9.41
2022-11-14T15:30:22.873Z,9.33
2022-11-14T15:32:52.836Z,9.27
2022-11-14T15:35:31.681Z,9.21
2022-11-14T15:38:28.859Z,9.15
2022-11-14T15:41:18.814Z,9.04
2022-11-14T15:43:50.193Z,8.97
2022-11-14T15:46:38.949Z,8.90
2022-11-14T15:49:16.718Z,8.82
2022-11-14T15:51:46.043Z,8.76
2022-11-14T15:54:27.815Z,8.72
2022-11-14T15:56:56.557Z,8.67
2022-11-14T15:59:23.649Z,8.60
2022-11-14T16:01:53.127Z,8.54
2022-11-14T16:04:24.094Z,8.48
2022-11-14T16:06:50.717Z,8.42
2022-11-14T16:09:19.255Z,8.37
2022-11-14T16:11:48.563Z,8.31
2022-11-14T16:14:15.601Z,8.27
2022-11-14T16:16:42.282Z,8.23
2022-11-14T16:19:12.664Z,8.18
2022-11-14T16:21:41.578Z,8.12
2022-11-14T16:24:14.503Z,8.07
2022-11-14T16:26:41.433Z,8.01
2022-11-14T16:29:08.144Z,7.96
2022-11-14T16:31:35.282Z,7.90
2022-11-14T16:34:03.168Z,7.85
2022-11-14T16:36:30.021Z,7.80
2022-11-14T16:38:59.931Z,7.76
2022-11-14T16:41:26.613Z,7.71
2022-11-14T16:43:54.604Z,7.66
2022-11-14T16:46:21.501Z,7.62
2022-11-14T16:48:48.320Z,7.58
2022-11-14T16:51:45.725Z,7.54
2022-11-14T16:54:03.134Z,7.49
2022-11-14T16:56:29.893Z,7.46
2022-11-14T16:58:56.726Z,7.43
2022-11-14T17:01:23.443Z,7.38
2022-11-14T17:03:50.215Z,7.35
2022-11-14T17:06:16.900Z,7.31
2022-11-14T17:08:43.467Z,7.28
2022-11-14T17:11:11.556Z,7.25
2022-11-14T17:13:38.136Z,7.22
2022-11-14T17:16:05.315Z,7.19
2022-11-14T17:18:38.158Z,7.16
2022-11-14T17:21:06.564Z,7.12
2022-11-14T17:23:33.329Z,7.09
2022-11-14T17:26:04.161Z,7.06
2022-11-14T17:28:33.599Z,7.03
2022-11-14T17:31:05.474Z,7.00
2022-11-14T17:33:32.444Z,6.96
2022-11-14T17:36:03.788Z,6.93
2022-11-14T17:38:32.301Z,6.89
2022-11-14T17:40:59.095Z,6.85
2022-11-14T17:43:25.728Z,6.81
2022-11-14T17:45:57.138Z,6.80
2022-11-14T17:48:24.085Z,6.77
2022-11-14T17:50:50.799Z,6.76
2022-11-14T17:53:18.038Z,6.74
2022-11-14T17:55:44.751Z,6.72
2022-11-14T17:58:11.740Z,6.70
2022-11-14T18:00:39.541Z,6.68
2022-11-14T18:03:07.692Z,6.66
2022-11-14T18:05:34.297Z,6.65
2022-11-14T18:08:00.931Z,6.63
2022-11-14T18:10:27.515Z,6.62
2022-11-14T18:12:54.111Z,6.59
2022-11-14T18:15:25.206Z,6.59
2022-11-14T18:17:54.288Z,6.60
2022-11-14T18:20:22.304Z,6.60
2022-11-14T18:22:48.983Z,6.62
2022-11-14T18:25:15.818Z,6.63
2022-11-14T18:27:42.831Z,6.65
2022-11-14T18:30:34.708Z,6.64
2022-11-14T18:32:57.303Z,6.64
2022-11-14T18:35:25.355Z,6.61
2022-11-14T18:37:52.006Z,6.59
2022-11-14T18:40:18.759Z,6.59
2022-11-14T18:42:45.304Z,6.57
2022-11-14T18:45:11.920Z,6.56
2022-11-14T18:47:38.523Z,6.54
2022-11-14T18:50:06.161Z,6.52
2022-11-14T18:52:34.148Z,6.50
2022-11-14T18:55:00.805Z,6.49
2022-11-14T18:57:27.505Z,6.48
2022-11-14T18:59:54.194Z,6.47
2022-11-14T19:02:20.831Z,6.46
2022-11-14T19:04:47.600Z,6.44
2022-11-14T19:07:14.413Z,6.43
2022-11-14T19:09:43.668Z,6.42
2022-11-14T19:12:10.462Z,6.39
2022-11-14T19:14:37.126Z,6.37
2022-11-14T19:17:04.157Z,6.38
2022-11-14T19:19:30.781Z,6.39
2022-11-14T19:21:57.491Z,6.35
2022-11-14T19:24:24.211Z,6.34
2022-11-14T19:26:52.302Z,6.33
2022-11-14T19:29:18.917Z,6.32
2022-11-14T19:31:45.687Z,6.31
2022-11-14T19:34:12.326Z,6.28
2022-11-14T19:36:58.701Z,6.26
2022-11-14T19:39:25.611Z,6.25
2022-11-14T19:41:53.574Z,6.23
2022-11-14T19:44:20.226Z,6.23
2022-11-14T19:46:48.110Z,6.25
2022-11-14T19:49:15.090Z,6.28
2022-11-14T19:51:41.692Z,6.31
2022-11-14T19:54:10.091Z,6.34
2022-11-14T19:56:36.993Z,6.34
2022-11-14T19:59:08.321Z,6.35
2022-11-14T20:01:38.122Z,6.35
2022-11-14T20:04:05.071Z,6.36
2022-11-14T20:06:34.134Z,6.36
2022-11-14T20:09:02.957Z,6.36
2022-11-14T20:11:30.791Z,6.37
2022-11-14T20:13:58.485Z,6.36
2022-11-14T20:16:28.275Z,6.35
2022-11-14T20:18:59.051Z,6.33
2022-11-14T20:21:28.405Z,6.33
2022-11-14T20:23:55.026Z,6.32
2022-11-14T20:26:22.460Z,6.32
2022-11-14T20:28:50.413Z,6.32
2022-11-14T20:31:18.900Z,6.29
2022-11-14T20:33:48.662Z,6.25
2022-11-14T20:36:17.677Z,6.23
2022-11-14T20:38:44.706Z,6.24
2022-11-14T20:41:11.891Z,6.25
2022-11-14T20:43:38.977Z,6.25
2022-11-14T20:46:09.464Z,6.24
2022-11-14T20:48:36.083Z,6.23
2022-11-14T20:51:06.405Z,6.23
2022-11-14T20:53:34.173Z,6.21
2022-11-14T20:56:01.373Z,6.19
2022-11-14T20:58:28.106Z,6.17
2022-11-14T21:00:55.065Z,6.17
2022-11-14T21:03:22.086Z,6.15
2022-11-14T21:05:48.704Z,6.13
2022-11-14T21:08:16.732Z,6.11
2022-11-14T21:10:45.220Z,6.10
2022-11-14T21:13:12.140Z,6.07
2022-11-14T21:15:38.780Z,6.08
2022-11-14T21:18:05.546Z,6.09
2022-11-14T21:20:32.150Z,6.08
2022-11-14T21:22:58.807Z,6.07
2022-11-14T21:25:26.954Z,6.09
2022-11-14T21:27:53.520Z,6.09
2022-11-14T21:30:20.200Z,6.07
2022-11-14T21:32:46.785Z,6.05
2022-11-14T21:35:13.517Z,6.03
2022-11-14T21:37:40.221Z,6.00
2022-11-14T21:40:08.321Z,6.00
2022-11-14T21:42:36.347Z,5.96
2022-11-14T21:45:03.264Z,5.97
2022-11-14T21:47:30.204Z,5.94
2022-11-14T21:50:00.994Z,5.92
2022-11-14T21:52:28.050Z,5.92
2022-11-14T21:54:54.906Z,5.91
2022-11-14T21:57:21.532Z,5.89
2022-11-14T21:59:49.537Z,5.86
2022-11-14T22:02:16.193Z,5.84
2022-11-14T22:04:43.034Z,5.81
2022-11-14T22:07:09.839Z,5.80
2022-11-14T22:09:39.802Z,5.77
2022-11-14T22:12:09.380Z,5.76
2022-11-14T22:14:35.982Z,5.77
2022-11-14T22:17:03.982Z,5.79
2022-11-14T22:19:30.576Z,5.79
2022-11-14T22:21:57.204Z,5.80
2022-11-14T22:24:23.862Z,5.81
2022-11-14T22:26:50.493Z,5.79
2022-11-14T22:29:17.095Z,5.77
2022-11-14T22:31:43.807Z,5.75
2022-11-14T22:34:12.326Z,5.75
2022-11-14T22:36:38.950Z,5.72
2022-11-14T22:39:05.514Z,5.71
2022-11-14T22:41:33.627Z,5.71
2022-11-14T22:44:01.287Z,5.68
2022-11-14T22:46:28.698Z,5.65
2022-11-14T22:48:55.953Z,5.65
2022-11-14T22:51:25.431Z,5.65
2022-11-14T22:53:54.271Z,5.63
2022-11-14T22:56:22.711Z,5.63
2022-11-14T22:58:49.478Z,5.62
2022-11-14T23:01:19.776Z,5.59
2022-11-14T23:03:46.870Z,5.56
2022-11-14T23:06:16.247Z,5.54
2022-11-14T23:08:44.665Z,5.52
2022-11-14T23:11:14.468Z,5.50
2022-11-14T23:13:43.428Z,5.51
2022-11-14T23:16:10.893Z,5.51
2022-11-14T23:18:38.160Z,5.50
2022-11-14T23:21:05.452Z,5.48
2022-11-14T23:23:32.337Z,5.45
2022-11-14T23:26:04.523Z,5.45
2022-11-14T23:28:31.577Z,5.43
2022-11-14T23:30:58.848Z,5.41
2022-11-14T23:33:25.675Z,5.38
2022-11-14T23:35:52.425Z,5.36
2022-11-14T23:38:19.188Z,5.34
2022-11-14T23:40:51.577Z,5.30
2022-11-14T23:43:19.924Z,5.28
2022-11-14T23:45:46.652Z,5.27
2022-11-14T23:48:13.261Z,5.24
2022-11-14T23:50:39.827Z,5.24
2022-11-14T23:53:06.427Z,5.22
2022-11-14T23:55:33.094Z,5.21
2022-11-14T23:57:59.917Z,5.20
